Aeroporto :
LOGIN :

Iscrizione | Disclaimer

   EN    FR    IT 

 










Sommario :    VFR   VFR Marginale   IFR   IFR Intensivo   IFR Molto Intensivo
Visibilità : 
Base nubi : 
>= 8 km
>= 3000ft
5 / 8 km
1000 / 3000 ft
1500m / 5 km
500 / 1000 ft
800 / 1500m
200 / 500 ft
< 800m
< 200 ft
Simboli :   Temporali  Nebbia  Neve Forte  Precipitazioni Forti  Vento > 20 kt
SIGMETs :   Varie  Temporali  Ghiacco  Turbolenza  Onda orograficha  Ceneri Vulcaniche






- Altitudine del aeroporto : 1161 ft
- Codice IATA : RJL


LELO - Logroño-Agoncillo

ULTIMO METAR :
  • 210030Z AUTO 26006KT CAVOK 04/03 Q1031

METARs OBSOLETI :
  • 210000Z AUTO 28004KT CAVOK 04/03 Q1031
  • 202330Z AUTO 30004KT 280V010 CAVOK 04/02 Q1030
  • 202300Z AUTO VRB01KT CAVOK 04/03 Q1030
  • 202230Z AUTO 21003KT 160V250 CAVOK 04/02 Q1030
  • 202200Z AUTO 16005KT 110V190 CAVOK 05/02 Q1029

TAF TAF LELO
Valido dal 20 a 18 ore il 21 a 03 ore UTC


201700Z 2018/2103 VRB03KT CAVOK
PROB40
TEMPO 2021/2103 30010KT
PROB30
TEMPO 2100/2103 3000 BR BKN012
PROB30
TEMPO 2101/2103 0500 FG VV002



MetMap, La meteo Aeronautica in un colpo d'occhio ! - Copyright ORBIFLY Dicembre 2007 - Disclaimer

ORBIFLY MET'MAP TEAM :

Programmazione e sviluppo : Alexandra Zaïnal
Concezione : Baudouin d'Aumeries
Aiuto per la programmazione : Marc-Olivier Méhu
Supporto tecnico e logistico : Manuel Goepfert
Aiuto per la traduzione : Arnaldo La Scala

Contatto : metmap@orbifly.com




FONTI E CREDITI :

   NOAA